Decoded Metar for KMFI (MARSHFIELD in WI, USA) (IATA:MFI) | Meteo·Mobile Aviation Weather
aviador You're here:

KMFI Decoded Metar

MARSHFIELD in WI, USA
Report Time2020-02-22 21:54:00
UTC Time2020-02-22 22:14:02
Flight Rules vfr VFR
Wind220° at 08 kt
W.Decomp.*RWY 23: 7.9 kt HW 1.4 kt LCW
RWY 16: 4.0 kt HW 6.9 kt RCW
Visibility9999 m
Phenomena:N/A
Clouds:N/A
Expected CloudBase > 4,000 ft AGL from Temp-Dew spread
CeilingNone
Temp06°C (ISA -7)
Dew Point-4°C (49% RH)
AAT0.6°C
QNH1013 hPa
Density Alt525 ft
Elevation1,243 ft
Report Wrong Elevation
Raw Report
KMFI 222154Z AUTO 22008KT 10SM CLR 06/M04 A2992 RMK AO2 SLP146
T00611044=

Extra information for KMFI:More info

Metar Taf Metar & Taf Last 4 Metars F.Rules Stats Wind Profile Meteogram Temp Stats Airport Information Weather charts Add Link Nearby VenuesMetar ALERT Operation Metar Decoded Social comments

AIRNAV info for KMFI